createdAt,value
2023-03-25T00:01:18.617Z,12.85
2023-03-25T00:03:53.571Z,12.80
2023-03-25T00:06:24.660Z,12.81
2023-03-25T00:08:54.930Z,12.98
2023-03-25T00:11:26.078Z,12.81
2023-03-25T00:13:59.237Z,12.75
2023-03-25T00:16:30.591Z,12.79
2023-03-25T00:19:02.949Z,12.76
2023-03-25T00:21:34.041Z,12.79
2023-03-25T00:24:04.855Z,12.92
2023-03-25T00:26:35.300Z,12.91
2023-03-25T00:29:05.838Z,12.91
2023-03-25T00:31:36.069Z,12.85
2023-03-25T00:34:09.596Z,12.87
2023-03-25T00:36:40.186Z,12.78
2023-03-25T00:39:11.530Z,12.75
2023-03-25T00:41:43.856Z,12.64
2023-03-25T00:44:17.625Z,12.75
2023-03-25T00:46:48.470Z,12.81
2023-03-25T00:49:25.465Z,12.57
2023-03-25T00:51:59.085Z,12.72
2023-03-25T00:54:30.632Z,12.83
2023-03-25T00:57:03.324Z,12.85
2023-03-25T00:59:35.056Z,12.77
2023-03-25T01:02:07.346Z,12.76
2023-03-25T01:04:46.437Z,12.84
2023-03-25T01:07:17.122Z,12.80
2023-03-25T01:09:48.161Z,12.68
2023-03-25T01:12:20.391Z,12.61
2023-03-25T01:14:51.655Z,12.37
2023-03-25T01:17:23.015Z,12.55
2023-03-25T01:19:56.361Z,12.47
2023-03-25T01:22:26.470Z,12.45
2023-03-25T01:24:58.777Z,12.54
2023-03-25T01:27:34.143Z,12.63
2023-03-25T01:30:04.282Z,12.27
2023-03-25T01:32:35.008Z,12.36
2023-03-25T01:35:07.972Z,12.24
2023-03-25T01:37:39.036Z,12.38
2023-03-25T01:40:10.795Z,12.34
2023-03-25T01:42:41.098Z,12.29
2023-03-25T01:45:26.981Z,11.97
2023-03-25T01:48:03.783Z,11.88
2023-03-25T01:50:38.378Z,11.77
2023-03-25T01:53:09.934Z,11.63
2023-03-25T01:55:41.914Z,11.96
2023-03-25T01:58:15.926Z,12.31
2023-03-25T02:00:55.657Z,12.16
2023-03-25T02:03:27.696Z,12.26
2023-03-25T02:06:06.709Z,12.26
2023-03-25T02:08:40.450Z,12.00
2023-03-25T02:11:11.599Z,11.86
2023-03-25T02:13:42.688Z,12.06
2023-03-25T02:16:28.055Z,12.03
2023-03-25T02:19:15.220Z,12.01
2023-03-25T02:22:15.509Z,12.12
2023-03-25T02:25:24.254Z,12.06
2023-03-25T02:28:04.082Z,12.15
2023-03-25T02:30:53.693Z,12.08
2023-03-25T02:33:45.928Z,12.02
2023-03-25T02:36:49.212Z,12.16
2023-03-25T02:39:26.741Z,11.97
2023-03-25T02:42:02.191Z,11.81
2023-03-25T02:44:38.957Z,11.88
2023-03-25T02:47:14.144Z,11.96
2023-03-25T02:49:48.372Z,12.11
2023-03-25T02:52:22.386Z,12.07
2023-03-25T02:54:58.468Z,12.07
2023-03-25T02:57:30.688Z,12.25
2023-03-25T03:00:03.598Z,12.13
2023-03-25T03:02:36.591Z,12.23
2023-03-25T03:05:26.543Z,12.32
2023-03-25T03:08:05.658Z,12.12
2023-03-25T03:10:44.518Z,12.08
2023-03-25T03:13:25.033Z,12.08
2023-03-25T03:16:01.431Z,12.10
2023-03-25T03:18:42.675Z,12.02
2023-03-25T03:21:16.885Z,11.97
2023-03-25T03:23:56.433Z,12.14
2023-03-25T03:26:35.074Z,12.02
2023-03-25T03:29:10.324Z,12.22
2023-03-25T03:31:48.803Z,12.35
2023-03-25T03:34:43.477Z,12.20
2023-03-25T03:37:16.247Z,12.29
2023-03-25T03:39:46.666Z,12.27
2023-03-25T03:42:22.442Z,12.11
2023-03-25T03:44:55.753Z,12.10
2023-03-25T03:47:29.013Z,12.15
2023-03-25T03:50:04.422Z,12.30
2023-03-25T03:52:38.013Z,12.04
2023-03-25T03:55:14.836Z,11.84
2023-03-25T03:57:49.679Z,11.83
2023-03-25T04:00:21.662Z,11.89
2023-03-25T04:02:54.364Z,11.97
2023-03-25T04:05:31.529Z,11.99
2023-03-25T04:08:12.261Z,11.86
2023-03-25T04:10:46.164Z,11.90
2023-03-25T04:13:19.163Z,11.96
2023-03-25T04:15:51.373Z,12.05
2023-03-25T04:18:24.298Z,11.89
2023-03-25T04:20:54.884Z,11.81
2023-03-25T04:23:26.436Z,11.89
2023-03-25T04:25:58.686Z,11.83
2023-03-25T04:28:32.502Z,11.83
2023-03-25T04:31:07.658Z,12.13
2023-03-25T04:33:41.676Z,12.31
2023-03-25T04:36:13.906Z,12.28
2023-03-25T04:38:46.111Z,12.13
2023-03-25T04:41:17.976Z,12.13
2023-03-25T04:43:50.683Z,12.01
2023-03-25T04:46:22.324Z,12.06
2023-03-25T04:48:54.947Z,12.11
2023-03-25T04:51:25.500Z,12.20
2023-03-25T04:53:55.649Z,11.90
2023-03-25T04:56:25.527Z,11.89
2023-03-25T04:58:57.668Z,11.96
2023-03-25T05:01:31.149Z,12.22
2023-03-25T05:04:06.141Z,12.24
2023-03-25T05:06:38.738Z,12.02
2023-03-25T05:09:16.001Z,11.92
2023-03-25T05:11:48.981Z,11.83
2023-03-25T05:14:22.268Z,11.82
2023-03-25T05:16:52.787Z,11.75
2023-03-25T05:19:23.205Z,11.49
2023-03-25T05:21:53.454Z,11.76
2023-03-25T05:24:23.720Z,11.84
2023-03-25T05:26:55.495Z,11.76
2023-03-25T05:29:28.022Z,11.73
2023-03-25T05:31:58.584Z,11.79
2023-03-25T05:34:31.486Z,11.89
2023-03-25T05:37:02.200Z,11.94
2023-03-25T05:39:33.249Z,11.93
2023-03-25T05:42:03.781Z,11.77
2023-03-25T05:44:36.394Z,11.61
2023-03-25T05:47:06.499Z,11.83
2023-03-25T05:49:37.121Z,11.80
2023-03-25T05:52:09.605Z,11.85
2023-03-25T05:54:42.783Z,11.75
2023-03-25T05:57:14.277Z,11.94
2023-03-25T05:59:45.831Z,12.07
2023-03-25T06:02:17.922Z,12.02
2023-03-25T06:04:50.868Z,11.49
2023-03-25T06:07:23.076Z,11.70
2023-03-25T06:09:54.780Z,11.60
2023-03-25T06:12:27.805Z,11.79
2023-03-25T06:15:00.884Z,11.84
2023-03-25T06:17:31.423Z,11.75
2023-03-25T06:20:07.785Z,11.86
2023-03-25T06:22:40.671Z,11.59
2023-03-25T06:25:13.019Z,11.78
2023-03-25T06:27:43.102Z,11.89
2023-03-25T06:30:17.832Z,12.02
2023-03-25T06:32:50.919Z,12.09
2023-03-25T06:35:22.850Z,11.75
2023-03-25T06:37:52.980Z,12.17
2023-03-25T06:40:24.886Z,12.06
2023-03-25T06:42:55.147Z,11.91
2023-03-25T06:45:27.973Z,12.19
2023-03-25T06:47:58.878Z,12.08
2023-03-25T06:50:29.954Z,12.18
2023-03-25T06:53:00.561Z,12.21
2023-03-25T06:55:31.086Z,12.22
2023-03-25T06:58:01.650Z,12.11
2023-03-25T07:00:34.595Z,12.04
2023-03-25T07:03:04.972Z,12.19
2023-03-25T07:05:35.875Z,12.19
2023-03-25T07:08:06.840Z,12.31
2023-03-25T07:10:37.391Z,12.08
2023-03-25T07:13:07.489Z,11.93
2023-03-25T07:15:39.344Z,11.87
2023-03-25T07:18:09.840Z,11.74
2023-03-25T07:20:40.456Z,11.91
2023-03-25T07:23:16.420Z,11.79
2023-03-25T07:25:46.340Z,11.87
2023-03-25T07:28:16.735Z,11.76
2023-03-25T07:30:49.316Z,11.92
2023-03-25T07:33:21.532Z,11.85
2023-03-25T07:35:53.124Z,11.75
2023-03-25T07:38:25.311Z,12.09
2023-03-25T07:40:57.544Z,12.14
2023-03-25T07:43:28.215Z,11.99
2023-03-25T07:46:00.871Z,11.87
2023-03-25T07:48:33.447Z,12.06
2023-03-25T07:51:04.303Z,12.13
2023-03-25T07:53:35.016Z,12.10
2023-03-25T07:56:07.839Z,12.29
2023-03-25T07:58:38.877Z,12.38
2023-03-25T08:01:11.232Z,12.41
2023-03-25T08:03:42.620Z,12.42
2023-03-25T08:06:13.266Z,12.31
2023-03-25T08:08:43.783Z,12.20
2023-03-25T08:11:17.389Z,12.66
2023-03-25T08:13:48.913Z,12.64
2023-03-25T08:16:22.527Z,12.74
2023-03-25T08:18:53.899Z,12.77
2023-03-25T08:21:27.777Z,12.97
2023-03-25T08:24:02.666Z,12.68
2023-03-25T08:26:34.084Z,12.20
2023-03-25T08:29:05.761Z,12.51
2023-03-25T08:31:39.747Z,12.45
2023-03-25T08:34:10.423Z,12.48
2023-03-25T08:36:41.494Z,12.48
2023-03-25T08:39:12.244Z,12.49
2023-03-25T08:41:41.996Z,12.46
2023-03-25T08:44:12.579Z,12.51
2023-03-25T08:46:44.402Z,12.54
2023-03-25T08:49:15.217Z,12.42
2023-03-25T08:51:45.741Z,12.67
2023-03-25T08:57:03.705Z,12.37
2023-03-25T08:59:34.446Z,12.39
2023-03-25T09:02:06.978Z,12.32
2023-03-25T09:04:39.295Z,12.15
2023-03-25T09:07:12.529Z,12.19
2023-03-25T09:09:44.055Z,12.22
2023-03-25T09:12:17.544Z,12.17
2023-03-25T09:14:48.369Z,12.09
2023-03-25T09:17:20.821Z,12.11
2023-03-25T09:19:52.895Z,12.02
2023-03-25T09:22:25.143Z,12.04
2023-03-25T09:24:55.420Z,11.84
2023-03-25T09:27:26.154Z,11.80
2023-03-25T09:29:57.542Z,12.01
2023-03-25T09:32:34.621Z,11.94
2023-03-25T09:35:05.931Z,11.97
2023-03-25T09:37:38.593Z,12.01
2023-03-25T09:40:10.040Z,11.68
2023-03-25T09:42:50.105Z,12.05
2023-03-25T09:45:27.890Z,12.12
2023-03-25T09:48:03.426Z,11.81
2023-03-25T09:50:36.547Z,11.85
2023-03-25T09:53:14.837Z,12.09
2023-03-25T09:55:48.591Z,11.79
2023-03-25T09:58:31.594Z,11.77
2023-03-25T10:01:07.658Z,12.04
2023-03-25T10:03:46.320Z,11.69
2023-03-25T10:06:23.166Z,11.81
2023-03-25T10:09:14.410Z,11.55
2023-03-25T10:11:50.058Z,11.69
2023-03-25T10:14:23.592Z,11.87
2023-03-25T10:17:05.407Z,11.84
2023-03-25T10:19:51.738Z,11.77
2023-03-25T10:22:27.959Z,11.76
2023-03-25T10:25:01.936Z,11.74
2023-03-25T10:27:40.380Z,11.76
2023-03-25T10:30:16.017Z,11.70
2023-03-25T10:32:49.746Z,11.82
2023-03-25T10:35:24.811Z,11.74
2023-03-25T10:37:58.628Z,11.52
2023-03-25T10:40:32.376Z,11.70
2023-03-25T10:43:17.935Z,11.51
2023-03-25T10:45:50.951Z,11.73
2023-03-25T10:48:25.442Z,11.52
2023-03-25T10:51:04.871Z,11.56
2023-03-25T10:53:35.813Z,11.54
2023-03-25T10:56:11.140Z,11.76
2023-03-25T10:58:43.787Z,11.67
2023-03-25T11:01:16.557Z,11.70
2023-03-25T11:03:49.542Z,11.53
2023-03-25T11:06:27.185Z,11.61
2023-03-25T11:09:21.098Z,11.70
2023-03-25T11:11:51.493Z,11.84
2023-03-25T11:14:26.733Z,11.56
2023-03-25T11:16:59.892Z,11.61
2023-03-25T11:19:34.817Z,11.72
2023-03-25T11:22:13.583Z,11.89
2023-03-25T11:24:47.331Z,11.78
2023-03-25T11:27:22.418Z,11.79
2023-03-25T11:29:58.178Z,11.08
2023-03-25T11:32:39.079Z,11.28
2023-03-25T11:35:19.083Z,11.65
2023-03-25T11:37:56.673Z,11.75
2023-03-25T11:40:27.749Z,11.83
2023-03-25T11:43:00.484Z,11.78
2023-03-25T11:45:36.966Z,11.82
2023-03-25T11:48:14.982Z,11.62
2023-03-25T11:50:54.749Z,11.62
2023-03-25T11:53:29.324Z,11.48
2023-03-25T11:56:08.020Z,11.56
2023-03-25T11:58:41.469Z,11.60
2023-03-25T12:01:26.224Z,11.61
2023-03-25T12:04:14.984Z,11.60
2023-03-25T12:07:00.812Z,11.49
2023-03-25T12:09:35.587Z,11.45
2023-03-25T12:12:30.315Z,11.77
2023-03-25T12:15:14.710Z,11.51
2023-03-25T12:17:54.441Z,11.62
2023-03-25T12:20:42.192Z,11.60
2023-03-25T12:23:21.696Z,11.56
2023-03-25T12:26:00.650Z,11.48
2023-03-25T12:28:59.085Z,11.67
2023-03-25T12:31:38.531Z,11.69
2023-03-25T12:34:16.091Z,11.82
2023-03-25T12:36:55.292Z,11.62
2023-03-25T12:39:44.190Z,11.59
2023-03-25T12:42:28.746Z,11.79
2023-03-25T12:45:09.805Z,11.94
2023-03-25T12:47:42.704Z,11.81
2023-03-25T12:50:33.013Z,11.68
2023-03-25T12:53:18.283Z,11.90
2023-03-25T12:56:00.615Z,11.91
2023-03-25T12:58:58.176Z,12.22
2023-03-25T13:01:33.954Z,11.99
2023-03-25T13:04:24.485Z,12.05
2023-03-25T13:07:02.339Z,11.90
2023-03-25T13:09:35.886Z,12.18
2023-03-25T13:12:11.886Z,12.40
2023-03-25T13:14:50.017Z,12.21
2023-03-25T13:17:27.853Z,12.46
2023-03-25T13:20:02.086Z,12.21
2023-03-25T13:22:35.640Z,12.44
2023-03-25T13:25:10.198Z,12.36
2023-03-25T13:27:43.743Z,12.37
2023-03-25T13:30:24.796Z,12.82
2023-03-25T13:32:58.746Z,13.42
2023-03-25T13:35:43.862Z,13.74
2023-03-25T13:38:18.624Z,14.15
2023-03-25T13:40:54.548Z,14.07
2023-03-25T13:43:30.305Z,14.34
2023-03-25T13:46:08.755Z,14.43
2023-03-25T13:48:43.911Z,14.51
2023-03-25T13:51:14.916Z,14.48
2023-03-25T13:53:49.441Z,14.67
2023-03-25T13:56:49.746Z,15.12
2023-03-25T13:59:49.859Z,15.48
2023-03-25T14:02:35.798Z,15.31
2023-03-25T14:05:42.445Z,15.37
2023-03-25T14:09:04.477Z,15.54
2023-03-25T14:11:39.131Z,15.22
2023-03-25T14:14:13.699Z,15.34
2023-03-25T14:16:47.479Z,15.48
2023-03-25T14:19:22.775Z,15.80
2023-03-25T14:21:54.841Z,15.92
2023-03-25T14:24:29.723Z,15.51
2023-03-25T14:27:04.860Z,15.66
2023-03-25T14:29:41.010Z,15.82
2023-03-25T14:32:32.689Z,15.81
2023-03-25T14:35:41.937Z,15.47
2023-03-25T14:38:39.216Z,15.79
2023-03-25T14:41:09.498Z,15.87
2023-03-25T14:43:42.633Z,15.60
2023-03-25T14:46:24.041Z,15.20
2023-03-25T14:49:09.850Z,15.16
2023-03-25T14:51:47.784Z,15.43
2023-03-25T14:54:24.427Z,15.24
2023-03-25T14:56:58.603Z,15.10
2023-03-25T14:59:33.675Z,14.63
2023-03-25T15:02:11.687Z,14.67
2023-03-25T15:04:43.066Z,15.13
2023-03-25T15:07:18.001Z,15.02
2023-03-25T15:09:54.586Z,14.71
2023-03-25T15:12:28.181Z,14.57
2023-03-25T15:15:05.115Z,14.45
2023-03-25T15:17:47.273Z,14.41
2023-03-25T15:20:40.081Z,14.48
2023-03-25T15:23:36.786Z,14.52
2023-03-25T15:26:14.243Z,14.33
2023-03-25T15:29:03.971Z,14.38
2023-03-25T15:31:56.309Z,14.33
2023-03-25T15:34:37.512Z,14.71
2023-03-25T15:37:43.126Z,14.18
2023-03-25T15:40:23.491Z,14.16
2023-03-25T15:43:08.941Z,14.33
2023-03-25T15:46:11.308Z,14.42
2023-03-25T15:49:03.585Z,14.53
2023-03-25T15:51:47.168Z,15.02
2023-03-25T15:54:33.918Z,14.51
2023-03-25T15:57:09.686Z,14.34
2023-03-25T15:59:45.398Z,14.15
2023-03-25T16:02:25.150Z,14.08
2023-03-25T16:04:56.634Z,14.09
2023-03-25T16:07:32.027Z,14.72
2023-03-25T16:10:15.123Z,14.04
2023-03-25T16:12:46.967Z,14.58
2023-03-25T16:15:20.470Z,14.09
2023-03-25T16:17:51.346Z,14.39
2023-03-25T16:20:26.197Z,14.08
2023-03-25T16:22:59.534Z,13.84
2023-03-25T16:25:35.784Z,13.62
2023-03-25T16:28:07.797Z,13.54
2023-03-25T16:30:40.940Z,13.77
2023-03-25T16:33:22.416Z,13.64
2023-03-25T16:35:55.225Z,13.58
2023-03-25T16:38:27.829Z,13.49
2023-03-25T16:41:04.532Z,13.28
2023-03-25T16:43:34.815Z,13.28
2023-03-25T16:46:09.626Z,13.43
2023-03-25T16:48:41.240Z,13.43
2023-03-25T16:51:16.655Z,13.20
2023-03-25T16:53:47.742Z,13.39
2023-03-25T16:56:25.509Z,13.17
2023-03-25T16:59:07.379Z,13.05
2023-03-25T17:01:43.272Z,13.13
2023-03-25T17:04:19.047Z,13.12
2023-03-25T17:06:53.082Z,13.19
2023-03-25T17:09:25.973Z,13.20
2023-03-25T17:11:58.391Z,13.14
2023-03-25T17:14:34.225Z,13.20
2023-03-25T17:17:12.730Z,13.77
2023-03-25T17:22:39.012Z,13.96
2023-03-25T17:25:20.117Z,13.47
2023-03-25T17:27:51.067Z,13.22
2023-03-25T17:30:24.263Z,12.87
2023-03-25T17:32:56.671Z,12.81
2023-03-25T17:35:34.037Z,13.14
2023-03-25T17:38:05.357Z,12.49
2023-03-25T17:40:36.118Z,12.31
2023-03-25T17:43:06.147Z,12.13
2023-03-25T17:45:37.209Z,12.05
2023-03-25T17:48:12.146Z,11.98
2023-03-25T17:50:53.879Z,11.61
2023-03-25T17:53:24.272Z,11.64
2023-03-25T17:55:55.204Z,11.71
2023-03-25T17:58:27.052Z,11.70
2023-03-25T18:00:57.696Z,11.56
2023-03-25T18:03:37.546Z,11.45
2023-03-25T18:06:08.687Z,11.27
2023-03-25T18:08:38.938Z,11.17
2023-03-25T18:11:12.602Z,11.34
2023-03-25T18:13:48.456Z,11.36
2023-03-25T18:16:20.219Z,11.17
2023-03-25T18:18:53.090Z,10.92
2023-03-25T18:21:24.396Z,10.83
2023-03-25T18:23:54.425Z,10.80
2023-03-25T18:26:26.056Z,11.10
2023-03-25T18:28:56.148Z,10.74
2023-03-25T18:31:26.880Z,10.74
2023-03-25T18:33:59.248Z,10.44
2023-03-25T18:36:30.049Z,10.40
2023-03-25T18:39:00.131Z,10.62
2023-03-25T18:41:31.447Z,10.13
2023-03-25T18:44:02.143Z,10.49
2023-03-25T18:46:32.194Z,10.28
2023-03-25T18:49:05.825Z,10.36
2023-03-25T18:51:38.154Z,10.58
2023-03-25T18:54:09.793Z,10.14
2023-03-25T18:56:42.394Z,10.34
2023-03-25T18:59:14.212Z,10.27
2023-03-25T19:01:44.455Z,10.28
2023-03-25T19:04:16.909Z,10.46
2023-03-25T19:06:48.693Z,9.99
2023-03-25T19:09:22.863Z,10.33
2023-03-25T19:11:53.808Z,10.25
2023-03-25T19:14:23.594Z,9.81
2023-03-25T19:17:03.767Z,10.06
2023-03-25T19:19:38.843Z,10.05
2023-03-25T19:22:10.284Z,9.39
2023-03-25T19:24:40.596Z,9.54
2023-03-25T19:27:11.330Z,9.96
2023-03-25T19:29:42.025Z,9.84
2023-03-25T19:32:12.535Z,9.62
2023-03-25T19:34:48.092Z,10.01
2023-03-25T19:37:18.262Z,9.69
2023-03-25T19:39:49.555Z,9.57
2023-03-25T19:42:20.121Z,9.56
2023-03-25T19:44:51.177Z,9.83
2023-03-25T19:47:22.112Z,9.73
2023-03-25T19:49:54.038Z,9.69
2023-03-25T19:52:25.086Z,9.50
2023-03-25T19:54:55.387Z,9.78
2023-03-25T19:57:25.832Z,9.72
2023-03-25T19:59:56.912Z,9.74
2023-03-25T20:02:27.989Z,9.58
2023-03-25T20:04:59.625Z,9.41
2023-03-25T20:07:29.871Z,9.86
2023-03-25T20:10:13.321Z,9.35
2023-03-25T20:12:49.755Z,9.82
2023-03-25T20:15:20.781Z,9.52
2023-03-25T20:17:51.985Z,9.21
2023-03-25T20:20:25.081Z,9.29
2023-03-25T20:22:55.931Z,9.27
2023-03-25T20:25:26.050Z,8.89
2023-03-25T20:27:58.740Z,9.15
2023-03-25T20:30:29.572Z,8.86
2023-03-25T20:33:00.584Z,8.47
2023-03-25T20:35:32.991Z,9.09
2023-03-25T20:38:03.688Z,8.67
2023-03-25T20:40:43.498Z,8.94
2023-03-25T20:43:15.002Z,8.99
2023-03-25T20:45:46.092Z,9.09
2023-03-25T20:48:16.471Z,9.11
2023-03-25T20:50:48.853Z,8.64
2023-03-25T20:53:19.771Z,8.54
2023-03-25T20:55:50.628Z,8.61
2023-03-25T20:58:21.912Z,9.16
2023-03-25T21:00:52.461Z,9.24
2023-03-25T21:03:23.586Z,9.09
2023-03-25T21:06:07.347Z,8.75
2023-03-25T21:08:45.071Z,8.96
2023-03-25T21:11:16.843Z,9.02
2023-03-25T21:13:47.192Z,8.97
2023-03-25T21:16:18.217Z,9.03
2023-03-25T21:18:50.813Z,8.02
2023-03-25T21:21:24.304Z,7.53
2023-03-25T21:23:54.706Z,7.74
2023-03-25T21:26:27.385Z,8.20
2023-03-25T21:29:00.204Z,7.83
2023-03-25T21:31:32.036Z,8.58
2023-03-25T21:34:03.162Z,8.72
2023-03-25T21:36:38.522Z,8.51
2023-03-25T21:39:09.490Z,8.11
2023-03-25T21:41:40.137Z,8.39
2023-03-25T21:44:12.839Z,8.50
2023-03-25T21:46:42.709Z,8.60
2023-03-25T21:49:14.657Z,8.36
2023-03-25T21:51:50.795Z,8.51
2023-03-25T21:54:22.249Z,8.44
2023-03-25T21:56:56.002Z,8.40
2023-03-25T21:59:27.096Z,7.98
2023-03-25T22:01:57.775Z,7.89
2023-03-25T22:04:27.883Z,8.07
2023-03-25T22:06:59.794Z,8.30
2023-03-25T22:09:30.808Z,8.33
2023-03-25T22:12:02.128Z,7.88
2023-03-25T22:14:32.535Z,8.10
2023-03-25T22:17:03.619Z,7.56
2023-03-25T22:19:34.027Z,8.31
2023-03-25T22:22:11.270Z,7.71
2023-03-25T22:24:41.494Z,7.52
2023-03-25T22:27:12.206Z,7.96
2023-03-25T22:29:43.637Z,8.14
2023-03-25T22:32:13.849Z,7.97
2023-03-25T22:34:45.034Z,8.35
2023-03-25T22:37:16.575Z,7.95
2023-03-25T22:39:47.360Z,8.35
2023-03-25T22:42:17.431Z,8.28
2023-03-25T22:44:49.144Z,8.17
2023-03-25T22:47:19.337Z,7.67
2023-03-25T22:49:49.185Z,7.43
2023-03-25T22:52:21.107Z,8.00
2023-03-25T22:54:51.772Z,8.01
2023-03-25T22:57:22.563Z,7.98
2023-03-25T22:59:53.262Z,7.53
2023-03-25T23:02:23.902Z,7.61
2023-03-25T23:04:54.801Z,7.83
2023-03-25T23:07:27.426Z,7.58
2023-03-25T23:09:57.515Z,7.69
2023-03-25T23:12:28.553Z,7.93
2023-03-25T23:14:59.600Z,7.23
2023-03-25T23:17:30.742Z,7.57
2023-03-25T23:20:01.025Z,7.82
2023-03-25T23:22:32.833Z,7.82
2023-03-25T23:25:05.522Z,7.53
2023-03-25T23:27:35.652Z,7.35
2023-03-25T23:30:07.458Z,7.77
2023-03-25T23:32:37.512Z,7.76
2023-03-25T23:35:10.314Z,7.32
2023-03-25T23:37:43.900Z,7.80
2023-03-25T23:40:14.681Z,7.47
2023-03-25T23:42:44.549Z,7.59
2023-03-25T23:45:16.224Z,7.47
2023-03-25T23:47:49.753Z,7.21
2023-03-25T23:50:20.556Z,7.27
2023-03-25T23:52:52.654Z,7.39
2023-03-25T23:55:23.914Z,7.18
2023-03-25T23:57:55.708Z,7.12
